sensor_id;sensor_type;location;lat;lon;timestamp;pressure;altitude;pressure_sealevel;temperature;humidity
2711;BME280;20721;47.402;8.550;2023-07-20T00:00:17;96054;;;23.09;45.62
2711;BME280;20721;47.402;8.550;2023-07-20T00:02:16;96051;;;23.03;46.36
2711;BME280;20721;47.402;8.550;2023-07-20T00:04:06;96048;;;23.01;46.46
2711;BME280;20721;47.402;8.550;2023-07-20T00:07:05;96053;;;23.00;46.45
2711;BME280;20721;47.402;8.550;2023-07-20T00:09:06;96050;;;22.98;46.42
2711;BME280;20721;47.402;8.550;2023-07-20T00:12:06;96049;;;22.95;46.28
2711;BME280;20721;47.402;8.550;2023-07-20T00:14:05;96054;;;22.96;46.34
2711;BME280;20721;47.402;8.550;2023-07-20T00:16:05;96051;;;23.00;46.03
2711;BME280;20721;47.402;8.550;2023-07-20T00:18:05;96053;;;23.05;45.96
2711;BME280;20721;47.402;8.550;2023-07-20T00:20:06;96055;;;23.07;45.81
2711;BME280;20721;47.402;8.550;2023-07-20T00:22:05;96055;;;23.09;45.79
2711;BME280;20721;47.402;8.550;2023-07-20T00:24:05;96055;;;23.12;45.84
2711;BME280;20721;47.402;8.550;2023-07-20T00:28:05;96053;;;23.12;45.74
2711;BME280;20721;47.402;8.550;2023-07-20T00:30:06;96050;;;23.12;45.46
2711;BME280;20721;47.402;8.550;2023-07-20T00:33:09;96055;;;23.14;45.35
2711;BME280;20721;47.402;8.550;2023-07-20T00:35:05;96057;;;23.12;45.55
2711;BME280;20721;47.402;8.550;2023-07-20T00:37:06;96059;;;23.13;45.60
2711;BME280;20721;47.402;8.550;2023-07-20T00:40:07;96055;;;23.15;45.69
2711;BME280;20721;47.402;8.550;2023-07-20T00:43:06;96055;;;23.14;45.88
2711;BME280;20721;47.402;8.550;2023-07-20T00:45:06;96050;;;23.11;45.94
2711;BME280;20721;47.402;8.550;2023-07-20T00:48:06;96046;;;23.09;45.90
2711;BME280;20721;47.402;8.550;2023-07-20T00:50:06;96046;;;23.06;46.04
2711;BME280;20721;47.402;8.550;2023-07-20T00:52:06;96047;;;23.04;45.99
2711;BME280;20721;47.402;8.550;2023-07-20T00:55:06;96044;;;22.98;46.26
2711;BME280;20721;47.402;8.550;2023-07-20T00:57:06;96048;;;22.94;46.46
2711;BME280;20721;47.402;8.550;2023-07-20T01:00:06;96048;;;22.92;46.49
2711;BME280;20721;47.402;8.550;2023-07-20T01:02:06;96047;;;22.92;46.54
2711;BME280;20721;47.402;8.550;2023-07-20T01:05:06;96044;;;22.91;46.63
2711;BME280;20721;47.402;8.550;2023-07-20T01:07:14;96044;;;22.87;46.49
2711;BME280;20721;47.402;8.550;2023-07-20T01:10:09;96044;;;22.85;46.68
2711;BME280;20721;47.402;8.550;2023-07-20T01:12:07;96044;;;22.82;46.60
2711;BME280;20721;47.402;8.550;2023-07-20T01:14:06;96043;;;22.78;46.65
2711;BME280;20721;47.402;8.550;2023-07-20T01:17:06;96043;;;22.80;46.76
2711;BME280;20721;47.402;8.550;2023-07-20T01:21:08;96047;;;22.76;46.47
2711;BME280;20721;47.402;8.550;2023-07-20T01:33:06;96038;;;22.80;46.44
2711;BME280;20721;47.402;8.550;2023-07-20T01:35:06;96040;;;22.81;45.95
2711;BME280;20721;47.402;8.550;2023-07-20T01:37:06;96044;;;22.83;45.78
2711;BME280;20721;47.402;8.550;2023-07-20T01:40:06;96042;;;22.80;45.70
2711;BME280;20721;47.402;8.550;2023-07-20T01:44:06;96032;;;22.83;45.56
2711;BME280;20721;47.402;8.550;2023-07-20T01:46:06;96033;;;22.84;45.43
2711;BME280;20721;47.402;8.550;2023-07-20T01:48:06;96027;;;22.87;45.41
2711;BME280;20721;47.402;8.550;2023-07-20T01:50:06;96029;;;22.91;45.11
2711;BME280;20721;47.402;8.550;2023-07-20T01:53:06;96027;;;22.89;45.41
2711;BME280;20721;47.402;8.550;2023-07-20T01:55:06;96029;;;22.89;45.44
2711;BME280;20721;47.402;8.550;2023-07-20T01:57:06;96032;;;22.86;44.99
2711;BME280;20721;47.402;8.550;2023-07-20T02:00:08;96032;;;22.88;45.24
2711;BME280;20721;47.402;8.550;2023-07-20T02:03:06;96029;;;22.91;45.24
2711;BME280;20721;47.402;8.550;2023-07-20T02:06:06;96033;;;22.93;45.07
2711;BME280;20721;47.402;8.550;2023-07-20T02:08:06;96036;;;22.94;45.04
2711;BME280;20721;47.402;8.550;2023-07-20T02:10:06;96037;;;22.94;44.80
2711;BME280;20721;47.402;8.550;2023-07-20T02:12:06;96039;;;22.92;44.85
2711;BME280;20721;47.402;8.550;2023-07-20T02:14:06;96039;;;22.91;45.18
2711;BME280;20721;47.402;8.550;2023-07-20T02:17:06;96037;;;22.91;45.11
2711;BME280;20721;47.402;8.550;2023-07-20T02:19:07;96037;;;22.87;45.01
2711;BME280;20721;47.402;8.550;2023-07-20T02:21:06;96034;;;22.84;44.88
2711;BME280;20721;47.402;8.550;2023-07-20T02:23:06;96034;;;22.79;44.96
2711;BME280;20721;47.402;8.550;2023-07-20T02:25:07;96035;;;22.78;44.95
2711;BME280;20721;47.402;8.550;2023-07-20T02:28:07;96038;;;22.77;44.96
2711;BME280;20721;47.402;8.550;2023-07-20T02:31:06;96041;;;22.77;45.26
2711;BME280;20721;47.402;8.550;2023-07-20T02:33:07;96042;;;22.79;45.12
2711;BME280;20721;47.402;8.550;2023-07-20T02:38:07;96048;;;22.76;45.05
2711;BME280;20721;47.402;8.550;2023-07-20T02:40:07;96056;;;22.72;44.98
2711;BME280;20721;47.402;8.550;2023-07-20T02:43:06;96050;;;22.70;44.90
2711;BME280;20721;47.402;8.550;2023-07-20T02:45:06;96049;;;22.64;44.89
2711;BME280;20721;47.402;8.550;2023-07-20T02:47:06;96054;;;22.63;45.15
2711;BME280;20721;47.402;8.550;2023-07-20T02:49:06;96052;;;22.66;44.92
2711;BME280;20721;47.402;8.550;2023-07-20T02:52:06;96048;;;22.68;45.13
2711;BME280;20721;47.402;8.550;2023-07-20T02:54:06;96048;;;22.69;44.81
2711;BME280;20721;47.402;8.550;2023-07-20T02:56:06;96050;;;22.69;44.82
2711;BME280;20721;47.402;8.550;2023-07-20T02:58:06;96048;;;22.67;44.58
2711;BME280;20721;47.402;8.550;2023-07-20T03:00:06;96050;;;22.66;44.54
2711;BME280;20721;47.402;8.550;2023-07-20T03:02:09;96054;;;22.63;44.92
2711;BME280;20721;47.402;8.550;2023-07-20T03:04:07;96051;;;22.62;44.57
2711;BME280;20721;47.402;8.550;2023-07-20T03:06:08;96048;;;22.60;44.62
2711;BME280;20721;47.402;8.550;2023-07-20T03:08:06;96048;;;22.56;44.70
2711;BME280;20721;47.402;8.550;2023-07-20T03:10:09;96052;;;22.53;44.61
2711;BME280;20721;47.402;8.550;2023-07-20T03:12:06;96053;;;22.53;44.70
2711;BME280;20721;47.402;8.550;2023-07-20T03:14:06;96054;;;22.56;44.98
2711;BME280;20721;47.402;8.550;2023-07-20T03:16:11;96054;;;22.55;44.53
2711;BME280;20721;47.402;8.550;2023-07-20T03:18:06;96055;;;22.49;44.63
2711;BME280;20721;47.402;8.550;2023-07-20T03:20:09;96053;;;22.43;44.60
2711;BME280;20721;47.402;8.550;2023-07-20T03:22:06;96052;;;22.40;44.64
2711;BME280;20721;47.402;8.550;2023-07-20T03:24:07;96051;;;22.36;44.62
2711;BME280;20721;47.402;8.550;2023-07-20T03:26:08;96054;;;22.36;44.84
2711;BME280;20721;47.402;8.550;2023-07-20T03:28:06;96051;;;22.33;44.59
2711;BME280;20721;47.402;8.550;2023-07-20T03:30:07;96044;;;22.32;44.72
2711;BME280;20721;47.402;8.550;2023-07-20T03:32:06;96049;;;22.36;44.79
2711;BME280;20721;47.402;8.550;2023-07-20T03:34:08;96051;;;22.36;44.91
2711;BME280;20721;47.402;8.550;2023-07-20T03:36:06;96055;;;22.33;44.98
2711;BME280;20721;47.402;8.550;2023-07-20T03:38:06;96051;;;22.34;45.02
2711;BME280;20721;47.402;8.550;2023-07-20T03:41:06;96048;;;22.35;44.93
2711;BME280;20721;47.402;8.550;2023-07-20T03:43:06;96045;;;22.39;44.73
2711;BME280;20721;47.402;8.550;2023-07-20T03:45:06;96050;;;22.39;44.67
2711;BME280;20721;47.402;8.550;2023-07-20T03:47:06;96053;;;22.36;44.80
2711;BME280;20721;47.402;8.550;2023-07-20T03:49:06;96053;;;22.31;44.94
2711;BME280;20721;47.402;8.550;2023-07-20T03:52:06;96052;;;22.31;44.93
2711;BME280;20721;47.402;8.550;2023-07-20T03:55:06;96057;;;22.33;45.01
2711;BME280;20721;47.402;8.550;2023-07-20T03:57:07;96054;;;22.30;45.25
2711;BME280;20721;47.402;8.550;2023-07-20T03:59:06;96057;;;22.30;45.34
2711;BME280;20721;47.402;8.550;2023-07-20T04:01:07;96056;;;22.32;45.18
2711;BME280;20721;47.402;8.550;2023-07-20T04:03:06;96057;;;22.33;45.37
2711;BME280;20721;47.402;8.550;2023-07-20T04:07:07;96058;;;22.34;44.88
2711;BME280;20721;47.402;8.550;2023-07-20T04:09:06;96056;;;22.36;44.94
2711;BME280;20721;47.402;8.550;2023-07-20T04:11:06;96058;;;22.37;44.75
2711;BME280;20721;47.402;8.550;2023-07-20T04:13:07;96061;;;22.38;44.61
2711;BME280;20721;47.402;8.550;2023-07-20T04:18:06;96063;;;22.38;44.72
2711;BME280;20721;47.402;8.550;2023-07-20T04:20:07;96064;;;22.32;45.08
2711;BME280;20721;47.402;8.550;2023-07-20T04:22:06;96062;;;22.28;44.96
2711;BME280;20721;47.402;8.550;2023-07-20T04:24:06;96065;;;22.27;45.06
2711;BME280;20721;47.402;8.550;2023-07-20T04:27:06;96071;;;22.27;45.27
2711;BME280;20721;47.402;8.550;2023-07-20T04:30:07;96068;;;22.28;44.96
2711;BME280;20721;47.402;8.550;2023-07-20T04:32:06;96065;;;22.26;45.14
2711;BME280;20721;47.402;8.550;2023-07-20T04:35:07;96070;;;22.28;45.32
2711;BME280;20721;47.402;8.550;2023-07-20T04:37:06;96069;;;22.31;45.41
2711;BME280;20721;47.402;8.550;2023-07-20T04:39:17;96067;;;22.33;45.20
2711;BME280;20721;47.402;8.550;2023-07-20T04:41:06;96075;;;22.32;45.34
2711;BME280;20721;47.402;8.550;2023-07-20T04:44:06;96075;;;22.32;45.41
2711;BME280;20721;47.402;8.550;2023-07-20T04:46:06;96073;;;22.37;45.54
2711;BME280;20721;47.402;8.550;2023-07-20T04:50:06;96079;;;22.39;45.47
2711;BME280;20721;47.402;8.550;2023-07-20T04:52:06;96080;;;22.41;45.64
2711;BME280;20721;47.402;8.550;2023-07-20T04:54:06;96084;;;22.42;45.40
2711;BME280;20721;47.402;8.550;2023-07-20T04:56:06;96085;;;22.44;45.52
2711;BME280;20721;47.402;8.550;2023-07-20T04:58:06;96084;;;22.47;45.54
2711;BME280;20721;47.402;8.550;2023-07-20T05:00:06;96083;;;22.49;45.55
2711;BME280;20721;47.402;8.550;2023-07-20T05:02:06;96079;;;22.50;45.34
2711;BME280;20721;47.402;8.550;2023-07-20T05:05:06;96084;;;22.50;45.60
2711;BME280;20721;47.402;8.550;2023-07-20T05:07:06;96085;;;22.52;45.54
2711;BME280;20721;47.402;8.550;2023-07-20T05:09:07;96082;;;22.54;45.62
2711;BME280;20721;47.402;8.550;2023-07-20T05:11:07;96080;;;22.57;45.65
2711;BME280;20721;47.402;8.550;2023-07-20T05:13:06;96081;;;22.59;45.96
2711;BME280;20721;47.402;8.550;2023-07-20T05:16:07;96080;;;22.59;46.16
2711;BME280;20721;47.402;8.550;2023-07-20T05:19:06;96077;;;22.56;45.78
2711;BME280;20721;47.402;8.550;2023-07-20T05:22:06;96073;;;22.57;46.00
2711;BME280;20721;47.402;8.550;2023-07-20T05:24:06;96074;;;22.58;46.00
2711;BME280;20721;47.402;8.550;2023-07-20T05:26:06;96073;;;22.63;46.08
2711;BME280;20721;47.402;8.550;2023-07-20T05:28:06;96076;;;22.71;46.06
2711;BME280;20721;47.402;8.550;2023-07-20T05:30:07;96075;;;22.76;45.78
2711;BME280;20721;47.402;8.550;2023-07-20T05:32:06;96075;;;22.86;45.50
2711;BME280;20721;47.402;8.550;2023-07-20T05:34:06;96080;;;22.96;45.34
2711;BME280;20721;47.402;8.550;2023-07-20T05:36:06;96078;;;23.02;45.31
2711;BME280;20721;47.402;8.550;2023-07-20T05:39:06;96075;;;23.01;45.00
2711;BME280;20721;47.402;8.550;2023-07-20T05:41:10;96074;;;22.98;45.26
2711;BME280;20721;47.402;8.550;2023-07-20T05:43:06;96072;;;22.99;45.07
2711;BME280;20721;47.402;8.550;2023-07-20T05:45:07;96076;;;22.92;45.19
2711;BME280;20721;47.402;8.550;2023-07-20T05:47:07;96074;;;22.95;45.17
2711;BME280;20721;47.402;8.550;2023-07-20T05:49:06;96076;;;22.99;45.05
2711;BME280;20721;47.402;8.550;2023-07-20T05:51:06;96078;;;23.05;44.96
2711;BME280;20721;47.402;8.550;2023-07-20T05:53:07;96076;;;23.12;45.40
2711;BME280;20721;47.402;8.550;2023-07-20T05:55:06;96078;;;23.16;44.83
2711;BME280;20721;47.402;8.550;2023-07-20T05:57:07;96076;;;23.14;44.86
2711;BME280;20721;47.402;8.550;2023-07-20T05:59:06;96079;;;23.05;45.07
2711;BME280;20721;47.402;8.550;2023-07-20T06:01:06;96080;;;22.94;45.74
2711;BME280;20721;47.402;8.550;2023-07-20T06:03:06;96078;;;22.87;45.68
2711;BME280;20721;47.402;8.550;2023-07-20T06:05:09;96079;;;22.80;45.83
2711;BME280;20721;47.402;8.550;2023-07-20T06:07:07;96074;;;22.62;46.15
2711;BME280;20721;47.402;8.550;2023-07-20T06:09:11;96074;;;22.40;46.80
2711;BME280;20721;47.402;8.550;2023-07-20T06:11:06;96073;;;22.37;47.30
2711;BME280;20721;47.402;8.550;2023-07-20T06:13:06;96068;;;22.56;47.18
2711;BME280;20721;47.402;8.550;2023-07-20T06:15:16;96073;;;22.83;46.45
2711;BME280;20721;47.402;8.550;2023-07-20T06:17:06;96070;;;23.08;46.03
2711;BME280;20721;47.402;8.550;2023-07-20T06:19:07;96071;;;23.34;45.96
2711;BME280;20721;47.402;8.550;2023-07-20T06:21:06;96067;;;23.51;45.12
2711;BME280;20721;47.402;8.550;2023-07-20T06:23:06;96075;;;23.65;44.84
2711;BME280;20721;47.402;8.550;2023-07-20T06:25:06;96072;;;23.72;44.39
2711;BME280;20721;47.402;8.550;2023-07-20T06:27:06;96069;;;23.70;44.24
2711;BME280;20721;47.402;8.550;2023-07-20T06:29:06;96065;;;23.61;44.49
2711;BME280;20721;47.402;8.550;2023-07-20T06:31:07;96065;;;23.56;44.70
2711;BME280;20721;47.402;8.550;2023-07-20T06:33:07;96065;;;23.53;44.49
2711;BME280;20721;47.402;8.550;2023-07-20T06:35:07;96070;;;23.45;44.80
2711;BME280;20721;47.402;8.550;2023-07-20T06:37:06;96066;;;23.39;45.11
2711;BME280;20721;47.402;8.550;2023-07-20T06:39:09;96069;;;23.39;45.66
2711;BME280;20721;47.402;8.550;2023-07-20T06:41:09;96067;;;23.46;45.38
2711;BME280;20721;47.402;8.550;2023-07-20T06:43:09;96070;;;23.54;45.05
2711;BME280;20721;47.402;8.550;2023-07-20T06:45:07;96069;;;23.62;45.48
2711;BME280;20721;47.402;8.550;2023-07-20T06:47:07;96072;;;23.68;44.97
2711;BME280;20721;47.402;8.550;2023-07-20T06:49:09;96072;;;23.65;44.20
2711;BME280;20721;47.402;8.550;2023-07-20T06:52:07;96074;;;23.72;44.05
2711;BME280;20721;47.402;8.550;2023-07-20T06:54:07;96074;;;23.88;44.27
2711;BME280;20721;47.402;8.550;2023-07-20T06:56:06;96073;;;24.29;43.21
2711;BME280;20721;47.402;8.550;2023-07-20T06:58:06;96071;;;24.54;42.21
2711;BME280;20721;47.402;8.550;2023-07-20T07:00:07;96071;;;24.55;42.09
2711;BME280;20721;47.402;8.550;2023-07-20T07:02:06;96073;;;24.62;42.09
2711;BME280;20721;47.402;8.550;2023-07-20T07:04:07;96070;;;24.86;42.13
2711;BME280;20721;47.402;8.550;2023-07-20T07:06:07;96067;;;24.89;41.38
2711;BME280;20721;47.402;8.550;2023-07-20T07:08:07;96068;;;24.96;41.38
2711;BME280;20721;47.402;8.550;2023-07-20T07:11:07;96065;;;24.96;40.83
2711;BME280;20721;47.402;8.550;2023-07-20T07:13:06;96071;;;25.02;40.63
2711;BME280;20721;47.402;8.550;2023-07-20T07:15:07;96071;;;25.08;40.46
2711;BME280;20721;47.402;8.550;2023-07-20T07:17:07;96072;;;25.18;40.37
2711;BME280;20721;47.402;8.550;2023-07-20T07:19:08;96075;;;25.30;39.71
2711;BME280;20721;47.402;8.550;2023-07-20T07:21:06;96072;;;25.28;39.14
2711;BME280;20721;47.402;8.550;2023-07-20T07:23:07;96078;;;25.37;39.79
2711;BME280;20721;47.402;8.550;2023-07-20T07:25:07;96077;;;25.37;39.00
2711;BME280;20721;47.402;8.550;2023-07-20T07:27:08;96076;;;25.33;39.52
2711;BME280;20721;47.402;8.550;2023-07-20T07:30:07;96073;;;25.29;39.70
2711;BME280;20721;47.402;8.550;2023-07-20T07:32:07;96072;;;25.26;39.53
2711;BME280;20721;47.402;8.550;2023-07-20T07:34:07;96065;;;25.32;39.26
2711;BME280;20721;47.402;8.550;2023-07-20T07:36:07;96066;;;25.63;38.93
2711;BME280;20721;47.402;8.550;2023-07-20T07:38:18;96066;;;25.85;38.62
2711;BME280;20721;47.402;8.550;2023-07-20T07:40:08;96069;;;26.30;39.07
2711;BME280;20721;47.402;8.550;2023-07-20T07:42:07;96062;;;26.40;37.70
2711;BME280;20721;47.402;8.550;2023-07-20T07:44:07;96065;;;26.56;37.02
2711;BME280;20721;47.402;8.550;2023-07-20T07:46:07;96064;;;26.61;37.25
2711;BME280;20721;47.402;8.550;2023-07-20T07:48:07;96066;;;26.55;37.38
2711;BME280;20721;47.402;8.550;2023-07-20T07:50:07;96065;;;26.74;37.60
2711;BME280;20721;47.402;8.550;2023-07-20T07:52:07;96070;;;27.11;36.84
2711;BME280;20721;47.402;8.550;2023-07-20T07:54:07;96069;;;27.39;35.92
2711;BME280;20721;47.402;8.550;2023-07-20T07:56:07;96066;;;27.66;36.18
2711;BME280;20721;47.402;8.550;2023-07-20T07:58:07;96068;;;27.99;35.30
2711;BME280;20721;47.402;8.550;2023-07-20T08:00:11;96064;;;28.10;34.61
2711;BME280;20721;47.402;8.550;2023-07-20T08:02:07;96065;;;28.43;34.43
2711;BME280;20721;47.402;8.550;2023-07-20T08:04:07;96069;;;28.68;34.37
2711;BME280;20721;47.402;8.550;2023-07-20T08:06:07;96063;;;29.09;33.91
2711;BME280;20721;47.402;8.550;2023-07-20T08:08:08;96062;;;29.28;33.38
2711;BME280;20721;47.402;8.550;2023-07-20T08:11:08;96062;;;29.33;32.66
2711;BME280;20721;47.402;8.550;2023-07-20T08:13:07;96062;;;29.44;32.75
2711;BME280;20721;47.402;8.550;2023-07-20T08:15:07;96057;;;29.67;33.31
2711;BME280;20721;47.402;8.550;2023-07-20T08:17:07;96051;;;29.74;32.58
2711;BME280;20721;47.402;8.550;2023-07-20T08:20:09;96049;;;29.87;32.49
2711;BME280;20721;47.402;8.550;2023-07-20T08:22:07;96042;;;30.06;31.72
2711;BME280;20721;47.402;8.550;2023-07-20T08:24:07;96050;;;30.23;31.31
2711;BME280;20721;47.402;8.550;2023-07-20T08:26:07;96057;;;30.46;31.14
2711;BME280;20721;47.402;8.550;2023-07-20T08:28:07;96059;;;30.66;30.59
2711;BME280;20721;47.402;8.550;2023-07-20T08:30:08;96060;;;30.69;30.23
2711;BME280;20721;47.402;8.550;2023-07-20T08:32:07;96062;;;30.79;30.13
2711;BME280;20721;47.402;8.550;2023-07-20T08:34:17;96057;;;30.58;30.79
2711;BME280;20721;47.402;8.550;2023-07-20T08:36:07;96053;;;30.35;29.75
2711;BME280;20721;47.402;8.550;2023-07-20T08:38:07;96057;;;30.52;30.73
2711;BME280;20721;47.402;8.550;2023-07-20T08:40:08;96052;;;30.82;29.97
2711;BME280;20721;47.402;8.550;2023-07-20T08:42:07;96057;;;30.93;30.08
2711;BME280;20721;47.402;8.550;2023-07-20T08:44:07;96055;;;31.12;29.85
2711;BME280;20721;47.402;8.550;2023-07-20T08:46:07;96050;;;31.31;29.45
2711;BME280;20721;47.402;8.550;2023-07-20T08:48:08;96051;;;31.34;29.25
2711;BME280;20721;47.402;8.550;2023-07-20T08:50:07;96045;;;31.45;29.17
2711;BME280;20721;47.402;8.550;2023-07-20T08:52:07;96049;;;31.67;29.02
2711;BME280;20721;47.402;8.550;2023-07-20T08:54:07;96046;;;31.72;28.61
2711;BME280;20721;47.402;8.550;2023-07-20T08:56:07;96043;;;31.87;29.57
2711;BME280;20721;47.402;8.550;2023-07-20T08:58:08;96042;;;32.05;28.38
2711;BME280;20721;47.402;8.550;2023-07-20T09:00:12;96041;;;32.04;28.70
2711;BME280;20721;47.402;8.550;2023-07-20T09:02:07;96045;;;32.15;28.54
2711;BME280;20721;47.402;8.550;2023-07-20T09:04:07;96045;;;32.25;28.76
2711;BME280;20721;47.402;8.550;2023-07-20T09:07:08;96043;;;32.31;28.37
2711;BME280;20721;47.402;8.550;2023-07-20T09:09:07;96045;;;32.44;28.77
2711;BME280;20721;47.402;8.550;2023-07-20T09:11:07;96042;;;32.42;28.07
2711;BME280;20721;47.402;8.550;2023-07-20T09:13:09;96042;;;32.13;27.74
2711;BME280;20721;47.402;8.550;2023-07-20T09:15:08;96038;;;32.07;28.62
2711;BME280;20721;47.402;8.550;2023-07-20T09:17:07;96033;;;32.04;28.60
2711;BME280;20721;47.402;8.550;2023-07-20T09:19:09;96034;;;31.88;28.91
2711;BME280;20721;47.402;8.550;2023-07-20T09:21:07;96030;;;31.66;29.16
2711;BME280;20721;47.402;8.550;2023-07-20T09:23:07;96028;;;31.53;28.95
2711;BME280;20721;47.402;8.550;2023-07-20T09:25:17;96020;;;31.08;28.85
2711;BME280;20721;47.402;8.550;2023-07-20T09:27:07;96018;;;30.58;29.32
2711;BME280;20721;47.402;8.550;2023-07-20T09:29:10;96018;;;30.53;30.84
2711;BME280;20721;47.402;8.550;2023-07-20T09:31:16;96012;;;30.22;31.40
2711;BME280;20721;47.402;8.550;2023-07-20T09:33:18;96012;;;30.74;30.94
2711;BME280;20721;47.402;8.550;2023-07-20T09:38:10;96006;;;31.73;30.19
2711;BME280;20721;47.402;8.550;2023-07-20T09:40:10;96013;;;31.84;29.20
2711;BME280;20721;47.402;8.550;2023-07-20T09:42:11;96014;;;32.07;29.46
2711;BME280;20721;47.402;8.550;2023-07-20T09:44:17;96010;;;32.29;28.55
2711;BME280;20721;47.402;8.550;2023-07-20T09:46:07;96007;;;32.47;28.80
2711;BME280;20721;47.402;8.550;2023-07-20T09:48:10;96003;;;32.77;28.65
2711;BME280;20721;47.402;8.550;2023-07-20T09:50:10;96003;;;32.88;27.93
2711;BME280;20721;47.402;8.550;2023-07-20T09:52:08;96004;;;33.14;27.63
2711;BME280;20721;47.402;8.550;2023-07-20T09:54:07;96006;;;33.42;27.84
2711;BME280;20721;47.402;8.550;2023-07-20T09:56:07;96004;;;33.62;27.31
2711;BME280;20721;47.402;8.550;2023-07-20T09:58:09;96003;;;33.74;26.93
2711;BME280;20721;47.402;8.550;2023-07-20T10:00:13;96005;;;33.83;26.41
2711;BME280;20721;47.402;8.550;2023-07-20T10:02:09;96003;;;33.87;26.42
2711;BME280;20721;47.402;8.550;2023-07-20T10:04:07;95994;;;33.96;26.30
2711;BME280;20721;47.402;8.550;2023-07-20T10:06:08;95996;;;34.03;26.50
2711;BME280;20721;47.402;8.550;2023-07-20T10:08:11;95992;;;33.98;26.49
2711;BME280;20721;47.402;8.550;2023-07-20T10:10:07;95994;;;33.79;26.30
2711;BME280;20721;47.402;8.550;2023-07-20T10:12:17;95991;;;33.76;26.01
2711;BME280;20721;47.402;8.550;2023-07-20T10:14:11;95989;;;33.70;26.66
2711;BME280;20721;47.402;8.550;2023-07-20T10:16:10;95985;;;33.60;27.13
2711;BME280;20721;47.402;8.550;2023-07-20T10:18:12;95987;;;33.50;26.87
2711;BME280;20721;47.402;8.550;2023-07-20T10:20:07;95985;;;33.61;27.71
2711;BME280;20721;47.402;8.550;2023-07-20T10:22:10;95983;;;33.71;26.85
2711;BME280;20721;47.402;8.550;2023-07-20T10:24:07;95979;;;33.83;27.04
2711;BME280;20721;47.402;8.550;2023-07-20T10:26:08;95979;;;33.56;26.31
2711;BME280;20721;47.402;8.550;2023-07-20T10:28:07;95973;;;33.38;28.02
2711;BME280;20721;47.402;8.550;2023-07-20T10:30:07;95972;;;33.39;28.03
2711;BME280;20721;47.402;8.550;2023-07-20T10:32:09;95969;;;33.48;27.92
2711;BME280;20721;47.402;8.550;2023-07-20T10:34:07;95965;;;33.24;27.67
2711;BME280;20721;47.402;8.550;2023-07-20T10:36:07;95964;;;33.20;28.01
2711;BME280;20721;47.402;8.550;2023-07-20T10:38:08;95960;;;32.99;27.29
2711;BME280;20721;47.402;8.550;2023-07-20T10:42:07;95961;;;32.89;27.70
2711;BME280;20721;47.402;8.550;2023-07-20T10:44:08;95961;;;32.74;27.98
2711;BME280;20721;47.402;8.550;2023-07-20T10:46:07;95961;;;32.58;28.30
2711;BME280;20721;47.402;8.550;2023-07-20T10:48:24;95963;;;32.30;28.34
2711;BME280;20721;47.402;8.550;2023-07-20T10:50:07;95957;;;32.27;28.51
2711;BME280;20721;47.402;8.550;2023-07-20T10:52:08;95955;;;32.11;28.85
2711;BME280;20721;47.402;8.550;2023-07-20T10:54:08;95953;;;32.12;28.89
2711;BME280;20721;47.402;8.550;2023-07-20T10:56:09;95949;;;32.19;28.94
2711;BME280;20721;47.402;8.550;2023-07-20T11:00:09;95946;;;32.56;28.34
2711;BME280;20721;47.402;8.550;2023-07-20T11:02:07;95941;;;32.54;27.31
2711;BME280;20721;47.402;8.550;2023-07-20T11:04:08;95933;;;32.40;27.67
2711;BME280;20721;47.402;8.550;2023-07-20T11:06:29;95932;;;32.14;27.39
2711;BME280;20721;47.402;8.550;2023-07-20T11:08:11;95929;;;31.95;27.51
2711;BME280;20721;47.402;8.550;2023-07-20T11:10:15;95930;;;31.81;28.09
2711;BME280;20721;47.402;8.550;2023-07-20T11:14:08;95935;;;32.13;28.83
2711;BME280;20721;47.402;8.550;2023-07-20T11:16:08;95935;;;32.56;28.96
2711;BME280;20721;47.402;8.550;2023-07-20T11:18:11;95928;;;32.66;27.05
2711;BME280;20721;47.402;8.550;2023-07-20T11:20:10;95925;;;32.69;27.42
2711;BME280;20721;47.402;8.550;2023-07-20T11:22:07;95921;;;32.98;26.82
2711;BME280;20721;47.402;8.550;2023-07-20T11:24:09;95923;;;33.14;25.86
2711;BME280;20721;47.402;8.550;2023-07-20T11:26:08;95920;;;33.16;25.87
2711;BME280;20721;47.402;8.550;2023-07-20T11:28:08;95916;;;33.27;26.21
2711;BME280;20721;47.402;8.550;2023-07-20T11:30:15;95916;;;33.17;26.60
2711;BME280;20721;47.402;8.550;2023-07-20T11:32:07;95915;;;32.82;26.87
2711;BME280;20721;47.402;8.550;2023-07-20T11:34:12;95924;;;32.41;26.97
2711;BME280;20721;47.402;8.550;2023-07-20T11:36:10;95919;;;32.28;27.76
2711;BME280;20721;47.402;8.550;2023-07-20T11:38:07;95916;;;32.33;27.83
2711;BME280;20721;47.402;8.550;2023-07-20T11:40:08;95912;;;32.29;27.66
2711;BME280;20721;47.402;8.550;2023-07-20T11:42:07;95906;;;32.14;27.77
2711;BME280;20721;47.402;8.550;2023-07-20T11:44:07;95905;;;32.12;28.07
2711;BME280;20721;47.402;8.550;2023-07-20T11:46:07;95901;;;32.10;27.80
2711;BME280;20721;47.402;8.550;2023-07-20T11:48:13;95900;;;32.15;28.17
2711;BME280;20721;47.402;8.550;2023-07-20T11:50:08;95898;;;32.20;28.03
2711;BME280;20721;47.402;8.550;2023-07-20T11:52:08;95900;;;32.27;27.98
2711;BME280;20721;47.402;8.550;2023-07-20T11:54:08;95888;;;32.49;27.44
2711;BME280;20721;47.402;8.550;2023-07-20T11:56:07;95892;;;32.77;28.16
2711;BME280;20721;47.402;8.550;2023-07-20T11:58:08;95896;;;32.95;28.00
2711;BME280;20721;47.402;8.550;2023-07-20T12:00:11;95885;;;32.89;26.89
2711;BME280;20721;47.402;8.550;2023-07-20T12:02:07;95880;;;32.69;26.72
2711;BME280;20721;47.402;8.550;2023-07-20T12:04:07;95880;;;32.46;28.05
2711;BME280;20721;47.402;8.550;2023-07-20T12:06:08;95885;;;32.29;28.04
2711;BME280;20721;47.402;8.550;2023-07-20T12:08:07;95878;;;32.23;28.11
2711;BME280;20721;47.402;8.550;2023-07-20T12:10:10;95875;;;32.04;28.18
2711;BME280;20721;47.402;8.550;2023-07-20T12:12:09;95875;;;31.98;28.46
2711;BME280;20721;47.402;8.550;2023-07-20T12:14:17;95871;;;31.89;28.18
2711;BME280;20721;47.402;8.550;2023-07-20T12:16:09;95867;;;31.90;28.62
2711;BME280;20721;47.402;8.550;2023-07-20T12:18:07;95866;;;31.82;28.33
2711;BME280;20721;47.402;8.550;2023-07-20T12:20:07;95866;;;31.62;28.43
2711;BME280;20721;47.402;8.550;2023-07-20T12:22:07;95866;;;31.58;28.76
2711;BME280;20721;47.402;8.550;2023-07-20T12:25:08;95866;;;31.56;28.97